Home > Products > Valid Products > TAF

000
FTUS44 KEPZ 030500
TAFDMN
TAF
KDMN 030520Z 0306/0406 32004KT P6SM SKC
     FM031800 16008KT P6SM FEW120 SCT250=



000
FTUS44 KEPZ 030500
TAFTCS
TAF
KTCS 030520Z 0306/0406 29005KT P6SM SKC
     FM031800 18010KT P6SM SKC=



000
FTUS44 KEPZ 030500
TAFELP
TAF
KELP 030520Z 0306/0406 16005KT P6SM SKC
     FM031800 14009KT P6SM FEW120 SCT250=



000
FTUS44 KEPZ 022300
TAFDMN
TAF
KDMN 022329Z 0300/0324 25007KT P6SM SKC
     FM030600 32004KT P6SM SKC=



000
FTUS44 KEPZ 022300
TAFTCS
TAF
KTCS 022329Z 0300/0324 21007KT P6SM SKC
     FM030300 29005KT P6SM SKC=



000
FTUS44 KEPZ 022300
TAFELP
TAF
KELP 022329Z 0300/0324 VRB05KT P6SM SKC
     FM030600 05004KT P6SM SKC=



000
FTUS44 KEPZ 021700
TAFDMN
TAF
KDMN 021721Z 0218/0318 26008KT P6SM SKC
     FM030600 30004KT P6SM SKC=



000
FTUS44 KEPZ 021700
TAFELP
TAF
KELP 021721Z 0218/0318 25007KT P6SM SKC
     FM030500 12004KT P6SM SKC=



000
FTUS44 KEPZ 021700
TAFTCS
TAF
KTCS 021721Z 0218/0318 VRB04KT P6SM SKC
     FM022000 18007KT P6SM SKC
     FM030300 29005KT P6SM SKC=



000
FTUS44 KEPZ 021100
TAFDMN
TAF
KDMN 021120Z 0212/0312 28007KT P6SM SKC
     FM022000 26008KT P6SM SKC
     FM030600 30004KT P6SM SKC=



000
FTUS44 KEPZ 021100
TAFELP
TAF
KELP 021120Z 0212/0312 18008KT P6SM SKC
     FM021800 25007KT P6SM SKC
     FM030600 13004KT P6SM SKC=



000
FTUS44 KEPZ 021100
TAFTCS
TAF
KTCS 021120Z 0212/0312 34004KT P6SM SKC
     FM022000 19007KT P6SM SKC
     FM030300 29005KT P6SM SKC=



000
FTUS44 KEPZ 020500 RRA
TAFELP
TAF
KELP 020541Z 0206/0306 26006KT P6SM SKC
     FM022000 25007KT P6SM FEW100=



000
FTUS44 KEPZ 020500 RRA
TAFTCS
TAF
KTCS 020541Z 0206/0306 32005KT P6SM SKC
     FM022000 19007KT P6SM FEW100
     FM030300 29005KT P6SM SKC=



000
FTUS44 KEPZ 020500 RRA
TAFDMN
TAF
KDMN 020541Z 0206/0306 28006KT P6SM SKC
     FM022000 26008KT P6SM FEW100=



000
FTUS44 KEPZ 012300
TAFELP
TAF
KELP 012320Z 0200/0224 26010G20KT P6SM FEW120
     FM020300 29005KT P6SM SKC
     FM022000 25007KT P6SM FEW100=



000
FTUS44 KEPZ 012300
TAFTCS
TAF
KTCS 012320Z 0200/0224 21007G15KT P6SM FEW100
     FM020300 29005KT P6SM SKC
     FM022000 23007KT P6SM FEW100=



000
FTUS44 KEPZ 012300
TAFDMN
TAF
KDMN 012320Z 0200/0224 27011G20KT P6SM FEW120
     FM020300 27006KT P6SM SKC
     FM022000 26010KT P6SM FEW100=



000
FTUS44 KEPZ 011700
TAFELP
TAF
KELP 011720Z 0118/0218 27009KT P6SM FEW100
     FM020400 28005KT P6SM SKC=



000
FTUS44 KEPZ 011700
TAFTCS
TAF
KTCS 011720Z 0118/0218 18007KT P6SM SKC
     FM020500 31006KT P6SM SKC=



000
FTUS44 KEPZ 011700
TAFDMN
TAF
KDMN 011720Z 0118/0218 28010G17KT P6SM FEW110
     FM020200 31006KT P6SM SKC=



000
FTUS44 KEPZ 011100
TAFELP
TAF
KELP 011120Z 0112/0212 22007KT P6SM SKC
     FM012100 27009KT P6SM FEW110
     FM020400 28005KT P6SM SKC=



000
FTUS44 KEPZ 011100
TAFTCS
TAF
KTCS 011120Z 0112/0212 31007KT P6SM FEW250
     FM011700 17007KT P6SM FEW100
     FM012100 21010KT P6SM FEW100
     FM020600 31006KT P6SM SKC=



000
FTUS44 KEPZ 011100
TAFDMN
TAF
KDMN 011120Z 0112/0212 28007KT P6SM SKC
     FM011800 27010G17KT P6SM FEW110
     FM020600 31006KT P6SM SKC=



000
FTUS44 KEPZ 010500
TAFELP
TAF
KELP 010520Z 0106/0206 28009KT P6SM FEW250
     FM012100 27009KT P6SM FEW110
     FM020400 28007KT P6SM SKC=



000
FTUS44 KEPZ 010500
TAFTCS
TAF
KTCS 010520Z 0106/0206 30010KT P6SM FEW250
     FM011700 17008KT P6SM FEW100
     FM012100 21009KT P6SM FEW100
     FM020500 23006KT P6SM SKC=



000
FTUS44 KEPZ 010500
TAFDMN
TAF
KDMN 010520Z 0106/0206 30008KT P6SM FEW250
     FM011800 27009KT P6SM FEW110
     FM020500 31006KT P6SM SKC=



000
FTUS44 KEPZ 312300
TAFTCS
TAF
KTCS 312320Z 0100/0124 21010G20KT P6SM FEW100
     FM010400 30010KT P6SM FEW250
     FM011700 17008KT P6SM FEW100
     FM012100 21009KT P6SM FEW100=



000
FTUS44 KEPZ 312300
TAFELP
TAF
KELP 312320Z 0100/0124 24010G20KT P6SM FEW110
     FM010600 28009KT P6SM FEW250
     FM012100 27009KT P6SM FEW110=



000
FTUS44 KEPZ 312300
TAFDMN
TAF
KDMN 312320Z 0100/0124 27012G22KT P6SM FEW110
     FM010600 30008KT P6SM FEW250
     FM011800 27009KT P6SM FEW110=



000
FTUS44 KEPZ 311700 RRA
TAFELP
TAF
KELP 311748Z 3118/0118 22010KT P6SM FEW100
     FM312000 24010G20KT P6SM FEW100
     FM010600 28009KT P6SM FEW100 FEW250=



000
FTUS44 KEPZ 311700 RRA
TAFDMN
TAF
KDMN 311748Z 3118/0118 26011KT P6SM FEW100
     FM312000 27012G22KT P6SM FEW080
     FM010600 28009KT P6SM FEW100 FEW250=



000
FTUS44 KEPZ 311700 RRA
TAFTCS
TAF
KTCS 311748Z 3118/0118 22009KT P6SM FEW100
     FM312000 21010G20KT P6SM FEW100
     FM010400 30010KT P6SM FEW100 FEW250
     FM011700 17008KT P6SM FEW100 FEW250=



000
FTUS44 KEPZ 311100
TAFTCS
TAF
KTCS 311129Z 3112/0112 30005KT P6SM SKC
     FM311600 22012G20KT P6SM SCT080 SCT250
     FM010600 25008KT P6SM FEW250=



000
FTUS44 KEPZ 311100
TAFELP
TAF
KELP 311129Z 3112/0112 00000KT P6SM FEW120
     FM311700 25010G17KT P6SM FEW100
     FM010600 28008KT P6SM FEW250=



000
FTUS44 KEPZ 311100
TAFDMN
TAF
KDMN 311129Z 3112/0112 23004KT P6SM SCT120
     FM311800 26012G22KT P6SM FEW100 SCT250
     FM010600 29007KT P6SM FEW250=



    US Dept of Commerce
    National Oceanic and Atmospheric Administration
    National Weather Service
    1325 East West Highway
    Silver Spring, MD 20910
    Page Author: NWS Internet Services Team
Disclaimer
Information Quality
Credits
Glossary
Privacy Policy
Freedom of Information Act (FOIA)
About Us
Career Opportunities